Asia, Texas
Current Conditions -  °F | °C
As of 6:53 PM on Saturday 22 Nov 2014 (Local Time) from KLFK Reporting Station
Light Rain Light Rain  
Wind Chill: 19°   Ceiling: 1600
Heat Index: 19°   Visibility: 8mi
Dew Point: 17°   Wind: 9mph
Humidity: 84%   Direction: 90°E
Pressure: 29.83"   Gusts: NA
Location:  31.024°N, 94.7686°W
Report Text: KLFK 230053Z AUTO 09008KT 8SM -RA BKN016 OVC022 19/17 A2983 RMK AO2 LTG DSNT W AND NW RAE15B36 SLP097 P0001 T01940167
Loading
Personal Weather Stations






























Interactive Weather Map New forecast layout! Learn more

10-Day Weather Forecast

Advertisements
Track Severe Weather on mobile